Time;durP1;ratioP1;P1;durP2;ratioP2;P2;SDS_P1;SDS_P2;PMS_P1;PMS_P2;Temp;Humidity;BMP_temperature;BMP_pressure;BME280_temperature;BME280_humidity;BME280_pressure;Samples;Min_cycle;Max_cycle;Signal;HPM_P1;HPM_P2
2023/06/11 00:03:04;;;;;;;3.92;2.67;;;;;;;;;;10455242;28;20468;-63
2023/06/11 00:08:05;;;;;;;8.77;3.15;;;;;;;;;;10454263;28;20041;-66
2023/06/11 00:13:05;;;;;;;9.55;2.88;;;;;;;;;;10455412;28;20025;-63
2023/06/11 00:18:06;;;;;;;5.53;3.17;;;;;;;;;;10455493;28;20029;-63
2023/06/11 00:23:06;;;;;;;3.58;2.90;;;;;;;;;;10452804;28;20029;-67
2023/06/11 00:28:07;;;;;;;5.00;2.97;;;;;;;;;;10453785;28;20032;-64
2023/06/11 00:33:09;;;;;;;2.88;2.47;;;;;;;;;;10453379;28;20048;-64
2023/06/11 00:38:10;;;;;;;5.60;2.60;;;;;;;;;;10452561;28;20507;-63
2023/06/11 00:43:10;;;;;;;3.03;2.20;;;;;;;;;;10454139;28;20033;-63
2023/06/11 00:48:11;;;;;;;3.03;2.10;;;;;;;;;;10457622;28;20028;-64
2023/06/11 00:53:15;;;;;;;2.78;2.00;;;;;;;;;;10452408;28;20033;-63
2023/06/11 00:58:17;;;;;;;2.55;2.25;;;;;;;;;;10453573;28;20025;-64
2023/06/11 01:03:22;;;;;;;2.72;2.20;;;;;;;;;;10462138;28;20117;-60
2023/06/11 01:08:25;;;;;;;3.35;2.30;;;;;;;;;;10455952;28;20388;-61
2023/06/11 01:13:25;;;;;;;4.18;2.30;;;;;;;;;;10453697;28;20056;-61
2023/06/11 01:18:33;;;;;;;4.25;2.00;;;;;;;;;;10452318;28;20095;-61
2023/06/11 01:23:40;;;;;;;10.07;2.30;;;;;;;;;;10453310;28;20094;-63
2023/06/11 01:28:46;;;;;;;2.03;1.88;;;;;;;;;;10451243;28;20035;-62
2023/06/11 01:33:47;;;;;;;7.40;2.40;;;;;;;;;;10442628;28;20075;-67
2023/06/11 01:38:51;;;;;;;2.40;2.20;;;;;;;;;;10450690;28;20059;-67
2023/06/11 01:43:51;;;;;;;7.75;2.63;;;;;;;;;;10452180;28;20047;-67
2023/06/11 01:48:52;;;;;;;5.97;2.17;;;;;;;;;;10449292;28;20021;-67
2023/06/11 01:53:54;;;;;;;3.10;2.20;;;;;;;;;;10450325;28;20113;-67
2023/06/11 01:58:57;;;;;;;3.22;1.98;;;;;;;;;;10450553;28;20486;-66
2023/06/11 02:03:58;;;;;;;4.15;2.25;;;;;;;;;;10450290;28;20479;-67
2023/06/11 02:08:58;;;;;;;3.95;2.10;;;;;;;;;;10453701;28;20071;-68
2023/06/11 02:13:59;;;;;;;2.28;1.98;;;;;;;;;;10448484;28;20377;-66
2023/06/11 02:19:00;;;;;;;2.28;2.08;;;;;;;;;;10450302;28;20467;-66
2023/06/11 02:24:00;;;;;;;2.55;2.30;;;;;;;;;;10449468;28;20534;-66
2023/06/11 02:29:01;;;;;;;3.67;2.28;;;;;;;;;;10439135;28;20219;-65
2023/06/11 02:34:01;;;;;;;4.85;2.17;;;;;;;;;;10437298;28;20097;-66
2023/06/11 02:39:03;;;;;;;2.38;2.00;;;;;;;;;;10450739;28;20052;-67
2023/06/11 02:44:03;;;;;;;3.10;2.25;;;;;;;;;;10449078;28;20475;-67
2023/06/11 02:49:05;;;;;;;3.80;2.28;;;;;;;;;;10437647;28;20033;-64
2023/06/11 02:54:06;;;;;;;10.88;2.10;;;;;;;;;;10425531;28;20111;-66
2023/06/11 02:59:07;;;;;;;4.40;2.42;;;;;;;;;;10446058;28;20029;-67
2023/06/11 03:04:08;;;;;;;3.28;2.00;;;;;;;;;;10448766;28;20047;-68
2023/06/11 03:09:08;;;;;;;2.55;2.35;;;;;;;;;;10450231;28;20029;-67
2023/06/11 03:14:09;;;;;;;6.18;1.90;;;;;;;;;;10448743;28;20044;-67
2023/06/11 03:19:09;;;;;;;3.78;2.20;;;;;;;;;;10450308;28;20044;-67
2023/06/11 03:24:10;;;;;;;8.13;2.05;;;;;;;;;;10450435;28;20040;-67
2023/06/11 03:29:10;;;;;;;3.88;2.20;;;;;;;;;;10442670;28;20033;-67
2023/06/11 03:34:11;;;;;;;4.05;2.28;;;;;;;;;;10447340;28;20056;-68
2023/06/11 03:39:12;;;;;;;3.97;2.30;;;;;;;;;;10448811;28;20574;-67
2023/06/11 03:44:12;;;;;;;3.92;2.00;;;;;;;;;;10448388;28;20044;-67
2023/06/11 03:49:13;;;;;;;2.35;1.90;;;;;;;;;;10446339;28;20022;-66
2023/06/11 03:54:13;;;;;;;3.53;1.80;;;;;;;;;;10448379;28;20037;-67
2023/06/11 03:59:14;;;;;;;2.38;2.15;;;;;;;;;;10448221;28;20033;-65
2023/06/11 04:04:15;;;;;;;3.40;2.00;;;;;;;;;;10453282;28;20087;-65
2023/06/11 04:09:15;;;;;;;3.65;1.90;;;;;;;;;;10458466;28;20040;-66
2023/06/11 04:14:16;;;;;;;6.05;2.35;;;;;;;;;;10455866;28;20176;-64
2023/06/11 04:19:18;;;;;;;6.25;2.53;;;;;;;;;;10455818;28;20475;-66
2023/06/11 04:24:18;;;;;;;3.13;2.00;;;;;;;;;;10430620;28;20029;-67
2023/06/11 04:29:19;;;;;;;3.95;1.88;;;;;;;;;;10443578;28;20404;-68
2023/06/11 04:34:20;;;;;;;2.78;1.80;;;;;;;;;;10442984;28;20072;-68
2023/06/11 04:39:22;;;;;;;5.82;2.40;;;;;;;;;;10454550;28;20036;-66
2023/06/11 04:44:23;;;;;;;2.65;2.42;;;;;;;;;;10450409;28;20028;-67
2023/06/11 04:49:24;;;;;;;2.90;2.20;;;;;;;;;;10444091;28;20037;-66
2023/06/11 04:54:26;;;;;;;6.95;2.50;;;;;;;;;;10441107;28;20033;-67
2023/06/11 04:59:27;;;;;;;3.78;2.28;;;;;;;;;;10453893;28;20029;-67
2023/06/11 05:04:27;;;;;;;4.25;2.13;;;;;;;;;;10452401;28;20037;-66
2023/06/11 05:09:28;;;;;;;5.07;2.03;;;;;;;;;;10447809;28;20036;-65
2023/06/11 05:14:29;;;;;;;2.40;1.98;;;;;;;;;;10450264;28;20032;-65
2023/06/11 05:19:30;;;;;;;2.25;2.05;;;;;;;;;;10449472;28;20041;-65
2023/06/11 05:24:31;;;;;;;1.92;1.77;;;;;;;;;;10451758;28;20079;-65
2023/06/11 05:29:31;;;;;;;2.60;2.08;;;;;;;;;;10452873;28;20025;-65
2023/06/11 05:34:33;;;;;;;14.25;2.35;;;;;;;;;;10446578;28;20096;-65
2023/06/11 05:39:33;;;;;;;6.13;2.05;;;;;;;;;;10446627;28;20037;-65
2023/06/11 05:44:34;;;;;;;3.38;2.25;;;;;;;;;;10439486;28;20440;-68
2023/06/11 05:49:35;;;;;;;3.13;2.75;;;;;;;;;;10436364;28;20029;-68
2023/06/11 05:54:35;;;;;;;4.45;2.00;;;;;;;;;;10430880;28;20074;-67
2023/06/11 05:59:36;;;;;;;3.15;1.95;;;;;;;;;;10451693;28;21290;-68
2023/06/11 06:04:36;;;;;;;3.47;2.05;;;;;;;;;;10439241;28;20584;-67
2023/06/11 06:09:37;;;;;;;3.80;2.10;;;;;;;;;;10444640;28;20025;-68
2023/06/11 06:14:37;;;;;;;2.58;2.28;;;;;;;;;;10436130;28;20029;-66
2023/06/11 06:19:38;;;;;;;2.40;1.98;;;;;;;;;;10438052;28;20086;-67
2023/06/11 06:24:38;;;;;;;1.83;1.73;;;;;;;;;;10436870;28;20025;-66
2023/06/11 06:29:39;;;;;;;2.33;2.08;;;;;;;;;;10451331;28;20025;-67
2023/06/11 06:34:40;;;;;;;2.50;2.03;;;;;;;;;;10449612;28;20040;-67
2023/06/11 06:39:41;;;;;;;2.33;2.13;;;;;;;;;;10450009;28;20056;-65
2023/06/11 06:44:41;;;;;;;3.72;2.17;;;;;;;;;;10449943;28;20017;-65
2023/06/11 06:49:42;;;;;;;6.30;1.92;;;;;;;;;;10445017;28;20025;-67
2023/06/11 06:54:43;;;;;;;7.50;2.40;;;;;;;;;;10445390;28;20035;-67
2023/06/11 06:59:43;;;;;;;7.35;1.92;;;;;;;;;;10448761;28;20048;-67
2023/06/11 07:04:44;;;;;;;2.17;1.70;;;;;;;;;;10447047;28;20043;-67
2023/06/11 07:09:45;;;;;;;2.53;1.88;;;;;;;;;;10452482;28;20028;-66
2023/06/11 07:14:46;;;;;;;4.20;1.67;;;;;;;;;;10450914;28;20354;-66
2023/06/11 07:19:46;;;;;;;3.35;1.80;;;;;;;;;;10444710;28;20542;-64
2023/06/11 07:24:48;;;;;;;2.25;1.70;;;;;;;;;;10453402;28;20055;-65
2023/06/11 07:29:48;;;;;;;5.00;1.77;;;;;;;;;;10449484;28;20036;-65
2023/06/11 07:34:49;;;;;;;2.05;1.67;;;;;;;;;;10453118;28;20045;-65
2023/06/11 07:39:49;;;;;;;2.38;1.83;;;;;;;;;;10451391;28;20040;-69
2023/06/11 07:44:50;;;;;;;7.18;1.60;;;;;;;;;;10464414;28;20037;-67
2023/06/11 07:49:51;;;;;;;4.25;1.88;;;;;;;;;;10452741;28;20484;-67
2023/06/11 07:54:51;;;;;;;4.78;2.00;;;;;;;;;;10455462;28;20499;-66
2023/06/11 07:59:52;;;;;;;3.90;1.80;;;;;;;;;;10455964;28;20036;-66
2023/06/11 08:04:53;;;;;;;4.47;1.80;;;;;;;;;;10455604;28;20669;-64
2023/06/11 08:09:53;;;;;;;3.38;1.80;;;;;;;;;;10453257;28;20412;-66
2023/06/11 08:14:54;;;;;;;1.65;1.50;;;;;;;;;;10453666;28;20021;-69
2023/06/11 08:19:54;;;;;;;4.82;1.90;;;;;;;;;;10451445;28;20404;-66
2023/06/11 08:24:55;;;;;;;2.65;1.70;;;;;;;;;;10453243;28;20414;-66
2023/06/11 08:29:56;;;;;;;3.67;1.98;;;;;;;;;;10453986;28;20044;-67
2023/06/11 08:34:57;;;;;;;9.63;2.08;;;;;;;;;;10449883;28;20040;-66
2023/06/11 08:39:58;;;;;;;3.63;1.83;;;;;;;;;;10453858;28;20028;-66
2023/06/11 08:44:59;;;;;;;6.53;1.88;;;;;;;;;;10455752;28;20491;-67
2023/06/11 08:50:02;;;;;;;6.30;2.45;;;;;;;;;;10449572;28;20021;-66
2023/06/11 08:55:03;;;;;;;2.60;1.58;;;;;;;;;;10449053;28;20055;-65
2023/06/11 09:00:07;;;;;;;1.92;1.58;;;;;;;;;;10450914;28;20439;-67
2023/06/11 09:05:10;;;;;;;5.28;1.85;;;;;;;;;;10452807;28;20530;-66
2023/06/11 09:10:11;;;;;;;7.60;1.55;;;;;;;;;;10452922;28;20040;-66
2023/06/11 09:15:12;;;;;;;3.28;1.90;;;;;;;;;;10439911;28;20025;-66
2023/06/11 09:20:14;;;;;;;2.42;2.22;;;;;;;;;;10450292;28;20493;-65
2023/06/11 09:25:18;;;;;;;3.85;2.40;;;;;;;;;;10439407;28;20033;-65
2023/06/11 09:30:19;;;;;;;2.60;2.35;;;;;;;;;;10450949;28;20116;-66
2023/06/11 09:35:20;;;;;;;3.05;2.20;;;;;;;;;;10448500;28;20074;-65
2023/06/11 09:40:25;;;;;;;2.58;2.33;;;;;;;;;;10448755;28;20416;-66
2023/06/11 09:45:25;;;;;;;3.85;2.10;;;;;;;;;;10435259;28;20064;-65
2023/06/11 09:50:26;;;;;;;4.53;2.05;;;;;;;;;;10447094;28;20048;-65
2023/06/11 09:55:28;;;;;;;3.55;1.90;;;;;;;;;;10442993;28;20044;-65
2023/06/11 10:00:30;;;;;;;3.65;2.00;;;;;;;;;;10429680;28;20037;-62
2023/06/11 10:05:35;;;;;;;6.13;2.83;;;;;;;;;;10458732;28;20024;-64
2023/06/11 10:10:42;;;;;;;2.95;2.67;;;;;;;;;;10452746;28;20036;-64
2023/06/11 10:15:47;;;;;;;3.20;2.33;;;;;;;;;;10436369;28;20400;-65
2023/06/11 10:20:58;;;;;;;3.08;2.50;;;;;;;;;;10441803;28;20151;-64
2023/06/11 10:25:59;;;;;;;2.97;2.58;;;;;;;;;;10447854;28;20493;-64
2023/06/11 10:31:00;;;;;;;2.25;2.13;;;;;;;;;;10412940;28;20065;-65
2023/06/11 10:36:01;;;;;;;4.93;2.60;;;;;;;;;;10436610;28;20033;-65
2023/06/11 10:41:05;;;;;;;4.47;2.55;;;;;;;;;;10433851;28;20035;-69
2023/06/11 10:46:12;;;;;;;3.83;2.30;;;;;;;;;;10442404;28;20036;-63
2023/06/11 10:51:13;;;;;;;3.25;2.13;;;;;;;;;;10441198;28;20036;-66
2023/06/11 10:56:14;;;;;;;8.35;2.08;;;;;;;;;;10446034;28;20029;-66
2023/06/11 11:01:15;;;;;;;5.93;2.15;;;;;;;;;;10448016;28;20029;-66
2023/06/11 11:06:26;;;;;;;2.78;1.83;;;;;;;;;;10438087;28;20037;-66
2023/06/11 11:11:27;;;;;;;3.47;2.20;;;;;;;;;;10463106;28;20029;-66
2023/06/11 11:16:28;;;;;;;5.35;2.10;;;;;;;;;;10449115;28;20038;-66
2023/06/11 11:21:30;;;;;;;2.45;1.88;;;;;;;;;;10455386;28;20079;-66
2023/06/11 11:26:41;;;;;;;3.58;2.20;;;;;;;;;;10457270;28;20163;-66
2023/06/11 11:31:43;;;;;;;3.05;2.15;;;;;;;;;;10444959;28;20576;-66
2023/06/11 11:36:45;;;;;;;2.17;1.98;;;;;;;;;;10456390;28;20489;-66
2023/06/11 11:41:50;;;;;;;2.88;2.10;;;;;;;;;;10457113;28;20025;-66
2023/06/11 11:46:58;;;;;;;2.05;1.85;;;;;;;;;;10443780;28;20148;-66
2023/06/11 11:52:00;;;;;;;4.47;2.38;;;;;;;;;;10455872;28;20025;-66
2023/06/11 11:57:07;;;;;;;2.97;2.17;;;;;;;;;;10454895;28;20477;-66
2023/06/11 12:02:09;;;;;;;2.38;1.80;;;;;;;;;;10456811;28;20027;-65
2023/06/11 12:07:15;;;;;;;4.30;2.22;;;;;;;;;;10454714;28;20033;-66
2023/06/11 12:12:15;;;;;;;5.85;2.20;;;;;;;;;;10442842;28;20488;-65
2023/06/11 12:17:16;;;;;;;2.78;2.38;;;;;;;;;;10443177;28;20055;-66
2023/06/11 12:22:16;;;;;;;2.85;1.80;;;;;;;;;;10443101;28;20029;-66
2023/06/11 12:27:17;;;;;;;3.13;2.40;;;;;;;;;;10454190;28;20039;-66
2023/06/11 12:32:20;;;;;;;1.92;1.77;;;;;;;;;;10455350;28;20076;-66
2023/06/11 12:37:21;;;;;;;2.65;1.95;;;;;;;;;;10442630;28;20033;-66
2023/06/11 12:42:22;;;;;;;2.83;2.22;;;;;;;;;;10454514;28;20090;-65
2023/06/11 12:47:23;;;;;;;5.75;2.05;;;;;;;;;;10454198;28;20120;-67
2023/06/11 12:52:23;;;;;;;3.55;2.30;;;;;;;;;;10452943;28;20033;-65
2023/06/11 12:57:24;;;;;;;4.05;2.08;;;;;;;;;;10454497;28;20370;-67
2023/06/11 13:02:25;;;;;;;2.10;1.90;;;;;;;;;;10453025;28;20396;-66
2023/06/11 13:07:26;;;;;;;2.85;2.10;;;;;;;;;;10453678;28;20100;-66
2023/06/11 13:12:27;;;;;;;2.45;2.10;;;;;;;;;;10443779;28;20075;-65
2023/06/11 13:17:28;;;;;;;1.77;1.67;;;;;;;;;;10441135;28;20070;-66
2023/06/11 13:22:28;;;;;;;2.58;2.10;;;;;;;;;;10452242;28;20040;-66
2023/06/11 13:27:29;;;;;;;2.20;2.00;;;;;;;;;;10441013;28;20051;-66
2023/06/11 13:32:29;;;;;;;2.50;2.30;;;;;;;;;;10452185;28;20079;-66
2023/06/11 13:37:30;;;;;;;3.17;2.13;;;;;;;;;;10438258;28;20123;-67
2023/06/11 13:42:31;;;;;;;2.40;2.20;;;;;;;;;;10439673;28;20088;-60
2023/06/11 13:47:31;;;;;;;3.00;2.13;;;;;;;;;;10453202;28;20029;-61
2023/06/11 13:52:32;;;;;;;2.50;1.90;;;;;;;;;;10452257;28;20483;-60
2023/06/11 13:57:32;;;;;;;3.15;2.00;;;;;;;;;;10450818;28;20365;-60
2023/06/11 14:02:34;;;;;;;2.70;2.30;;;;;;;;;;10429465;28;20049;-60
2023/06/11 14:07:35;;;;;;;2.72;2.10;;;;;;;;;;10449861;28;20036;-60
2023/06/11 14:12:36;;;;;;;2.40;2.10;;;;;;;;;;10456302;28;20021;-62
2023/06/11 14:17:39;;;;;;;2.92;2.17;;;;;;;;;;10450543;28;20029;-63
2023/06/11 14:22:40;;;;;;;2.45;2.17;;;;;;;;;;10432095;28;20041;-60
2023/06/11 14:27:43;;;;;;;2.00;1.80;;;;;;;;;;10416953;28;20025;-60
2023/06/11 14:32:43;;;;;;;2.55;1.90;;;;;;;;;;10449730;28;20037;-61
2023/06/11 14:37:44;;;;;;;2.95;2.25;;;;;;;;;;10450582;28;20368;-60
2023/06/11 14:42:44;;;;;;;3.78;2.47;;;;;;;;;;10437237;28;20353;-60
2023/06/11 14:47:45;;;;;;;2.38;2.17;;;;;;;;;;10450834;28;20506;-60
2023/06/11 14:52:47;;;;;;;1.80;1.70;;;;;;;;;;10437234;28;20468;-60
2023/06/11 14:57:47;;;;;;;2.60;2.22;;;;;;;;;;10450794;28;20110;-60
2023/06/11 15:02:48;;;;;;;2.60;2.00;;;;;;;;;;10449319;28;20110;-60
2023/06/11 15:07:48;;;;;;;2.60;2.40;;;;;;;;;;10448807;28;20471;-60
2023/06/11 15:12:49;;;;;;;2.00;1.90;;;;;;;;;;10440572;28;20025;-60
2023/06/11 15:17:50;;;;;;;2.75;2.28;;;;;;;;;;10443743;28;20053;-60
2023/06/11 15:22:50;;;;;;;2.90;2.45;;;;;;;;;;10430157;28;20025;-60
2023/06/11 15:27:51;;;;;;;2.83;2.10;;;;;;;;;;10436313;28;20029;-61
2023/06/11 15:32:51;;;;;;;2.00;1.80;;;;;;;;;;10448207;28;20041;-64
2023/06/11 15:37:52;;;;;;;2.58;2.25;;;;;;;;;;10437356;28;20033;-60
2023/06/11 15:42:52;;;;;;;2.60;2.00;;;;;;;;;;10433320;28;20032;-63
2023/06/11 15:47:53;;;;;;;2.67;2.00;;;;;;;;;;10439940;28;20033;-60
2023/06/11 15:52:54;;;;;;;2.20;2.00;;;;;;;;;;10448256;28;20496;-60
2023/06/11 15:57:55;;;;;;;2.78;2.08;;;;;;;;;;10451301;28;20031;-60
2023/06/11 16:02:55;;;;;;;1.70;1.60;;;;;;;;;;10456062;28;20377;-60
2023/06/11 16:07:56;;;;;;;2.28;2.08;;;;;;;;;;10454922;28;20017;-60
2023/06/11 16:12:56;;;;;;;1.80;1.70;;;;;;;;;;10459639;28;20043;-60
2023/06/11 16:17:57;;;;;;;2.13;1.83;;;;;;;;;;10454385;28;20028;-62
2023/06/11 16:22:58;;;;;;;2.88;2.20;;;;;;;;;;10455612;28;20029;-60
2023/06/11 16:27:58;;;;;;;2.10;1.90;;;;;;;;;;10454306;28;20025;-60
2023/06/11 16:32:59;;;;;;;2.08;1.88;;;;;;;;;;10449205;28;20519;-60
2023/06/11 16:38:00;;;;;;;2.03;1.92;;;;;;;;;;10445586;28;20091;-66
2023/06/11 16:43:01;;;;;;;5.07;2.08;;;;;;;;;;10448829;28;20083;-61
2023/06/11 16:48:01;;;;;;;2.05;1.95;;;;;;;;;;10447708;28;20067;-60
2023/06/11 16:53:02;;;;;;;2.42;2.10;;;;;;;;;;10449861;28;20032;-60
2023/06/11 16:58:02;;;;;;;3.72;2.17;;;;;;;;;;10451026;28;20058;-62
2023/06/11 17:03:03;;;;;;;3.80;1.80;;;;;;;;;;10447567;28;20029;-64
2023/06/11 17:08:04;;;;;;;15.60;2.35;;;;;;;;;;10444270;28;20032;-66
2023/06/11 17:13:05;;;;;;;6.38;2.30;;;;;;;;;;10448608;28;20052;-66
2023/06/11 17:18:13;;;;;;;6.93;2.15;;;;;;;;;;10452424;28;20043;-66
2023/06/11 17:23:21;;;;;;;6.10;2.50;;;;;;;;;;10455975;28;20040;-66
2023/06/11 17:28:22;;;;;;;3.47;1.90;;;;;;;;;;10448321;28;20045;-64
2023/06/11 17:33:23;;;;;;;6.88;2.17;;;;;;;;;;10435623;28;20052;-64
2023/06/11 17:38:24;;;;;;;3.38;1.60;;;;;;;;;;10436526;28;20060;-64
2023/06/11 17:43:25;;;;;;;3.10;1.85;;;;;;;;;;10447602;28;20040;-65
2023/06/11 17:48:26;;;;;;;3.38;1.80;;;;;;;;;;10437944;28;20037;-65
2023/06/11 17:53:27;;;;;;;5.38;1.70;;;;;;;;;;10439609;28;20029;-66
2023/06/11 17:58:27;;;;;;;2.83;1.90;;;;;;;;;;10436884;28;20065;-64
2023/06/11 18:03:28;;;;;;;3.05;1.90;;;;;;;;;;10435481;28;20025;-65
2023/06/11 18:08:29;;;;;;;2.20;1.70;;;;;;;;;;10446360;28;20033;-63
2023/06/11 18:13:30;;;;;;;3.75;2.45;;;;;;;;;;10445604;28;20089;-65
2023/06/11 18:18:31;;;;;;;2.00;1.85;;;;;;;;;;10445826;28;20029;-63
2023/06/11 18:23:31;;;;;;;2.42;1.90;;;;;;;;;;10436074;28;20072;-64
2023/06/11 18:28:32;;;;;;;2.38;1.85;;;;;;;;;;10444178;28;20035;-65
2023/06/11 18:33:33;;;;;;;2.45;1.80;;;;;;;;;;10447729;28;20285;-65
2023/06/11 18:38:33;;;;;;;2.72;2.00;;;;;;;;;;10443879;28;20074;-64
2023/06/11 18:43:34;;;;;;;3.15;1.70;;;;;;;;;;10443169;28;20392;-64
2023/06/11 18:48:34;;;;;;;4.50;1.85;;;;;;;;;;10441799;28;20400;-64
2023/06/11 18:53:35;;;;;;;2.10;1.90;;;;;;;;;;10438583;28;20509;-63
2023/06/11 18:58:36;;;;;;;5.97;2.65;;;;;;;;;;10447399;28;20110;-63
2023/06/11 19:03:36;;;;;;;5.78;2.10;;;;;;;;;;10447548;28;20028;-63
2023/06/11 19:08:37;;;;;;;7.60;2.60;;;;;;;;;;10444095;28;20035;-64
2023/06/11 19:13:40;;;;;;;19.80;4.57;;;;;;;;;;10447163;28;20029;-62
2023/06/11 19:18:40;;;;;;;12.68;3.50;;;;;;;;;;10443645;28;20469;-64
2023/06/11 19:23:41;;;;;;;9.10;3.40;;;;;;;;;;10440418;28;20021;-65
2023/06/11 19:28:42;;;;;;;8.95;3.15;;;;;;;;;;10442781;28;20495;-64
2023/06/11 19:33:43;;;;;;;14.98;3.42;;;;;;;;;;10451985;28;20072;-65
2023/06/11 19:38:43;;;;;;;4.78;2.60;;;;;;;;;;10454770;28;20397;-64
2023/06/11 19:43:44;;;;;;;24.77;3.40;;;;;;;;;;10452281;28;20040;-65
2023/06/11 19:48:45;;;;;;;12.13;2.90;;;;;;;;;;10452160;28;20036;-65
2023/06/11 19:53:46;;;;;;;4.75;2.40;;;;;;;;;;10452047;28;20032;-66
2023/06/11 19:58:47;;;;;;;6.05;2.60;;;;;;;;;;10451796;28;20036;-63
2023/06/11 20:03:47;;;;;;;7.60;2.78;;;;;;;;;;10448288;28;20066;-64
2023/06/11 20:08:48;;;;;;;8.40;2.58;;;;;;;;;;10451092;28;20033;-66
2023/06/11 20:13:49;;;;;;;4.40;2.03;;;;;;;;;;10436850;28;20036;-66
2023/06/11 20:18:49;;;;;;;7.57;2.42;;;;;;;;;;10484426;28;20499;-66
2023/06/11 20:23:50;;;;;;;5.32;2.30;;;;;;;;;;10492567;28;20025;-65
2023/06/11 20:28:50;;;;;;;4.40;2.28;;;;;;;;;;10479470;28;20017;-61
2023/06/11 20:33:51;;;;;;;3.03;2.15;;;;;;;;;;10492508;28;20040;-64
2023/06/11 20:38:52;;;;;;;11.88;2.70;;;;;;;;;;10473018;28;20031;-60
2023/06/11 20:43:52;;;;;;;4.18;2.15;;;;;;;;;;10487670;28;20024;-60
2023/06/11 20:48:53;;;;;;;2.35;2.13;;;;;;;;;;10498768;28;20471;-61
2023/06/11 20:53:53;;;;;;;5.43;2.13;;;;;;;;;;10494002;28;20024;-60
2023/06/11 20:58:54;;;;;;;3.08;2.25;;;;;;;;;;10493531;28;20039;-60
2023/06/11 21:03:55;;;;;;;3.60;2.00;;;;;;;;;;10493888;28;20028;-60
2023/06/11 21:08:55;;;;;;;2.10;1.90;;;;;;;;;;10503213;28;20531;-60
2023/06/11 21:13:56;;;;;;;4.47;2.10;;;;;;;;;;10492687;28;20475;-60
2023/06/11 21:18:57;;;;;;;4.60;1.90;;;;;;;;;;10491679;28;20059;-62
2023/06/11 21:23:58;;;;;;;3.33;1.92;;;;;;;;;;10491276;28;20016;-65
2023/06/11 21:29:00;;;;;;;7.40;2.20;;;;;;;;;;10492240;28;20114;-64
2023/06/11 21:34:01;;;;;;;5.65;2.30;;;;;;;;;;10493976;28;20225;-60
2023/06/11 21:39:01;;;;;;;2.20;1.98;;;;;;;;;;10493235;28;20225;-59
2023/06/11 21:44:02;;;;;;;5.60;1.88;;;;;;;;;;10492307;28;20021;-59
2023/06/11 21:49:03;;;;;;;2.08;1.85;;;;;;;;;;10492407;28;20021;-59
2023/06/11 21:54:04;;;;;;;4.30;2.00;;;;;;;;;;10493366;28;20379;-59
2023/06/11 21:59:05;;;;;;;3.15;2.10;;;;;;;;;;10479974;28;20032;-59
2023/06/11 22:04:05;;;;;;;6.90;2.10;;;;;;;;;;10493362;28;20032;-59
2023/06/11 22:09:06;;;;;;;8.55;2.28;;;;;;;;;;10496188;28;20028;-59
2023/06/11 22:14:07;;;;;;;2.63;1.83;;;;;;;;;;10491690;28;20103;-59
2023/06/11 22:19:10;;;;;;;2.88;2.10;;;;;;;;;;10491848;28;20025;-59
2023/06/11 22:24:10;;;;;;;2.92;2.10;;;;;;;;;;10480171;28;20372;-59
2023/06/11 22:29:12;;;;;;;2.40;2.00;;;;;;;;;;10492794;28;20033;-59
2023/06/11 22:34:12;;;;;;;4.82;2.00;;;;;;;;;;10479012;28;20500;-59
2023/06/11 22:39:13;;;;;;;5.80;1.88;;;;;;;;;;10490512;28;20044;-60
2023/06/11 22:44:13;;;;;;;2.10;1.75;;;;;;;;;;10478295;28;20024;-59
2023/06/11 22:49:14;;;;;;;2.55;2.00;;;;;;;;;;10492998;28;20033;-58
2023/06/11 22:54:15;;;;;;;2.80;2.00;;;;;;;;;;10491809;28;20383;-60
2023/06/11 22:59:17;;;;;;;2.08;1.83;;;;;;;;;;10492665;28;20595;-60
2023/06/11 23:04:20;;;;;;;2.78;1.98;;;;;;;;;;10491676;28;20036;-59
2023/06/11 23:09:20;;;;;;;2.10;1.90;;;;;;;;;;10494061;28;20029;-58
2023/06/11 23:14:21;;;;;;;2.42;1.90;;;;;;;;;;10493976;28;20055;-59
2023/06/11 23:19:24;;;;;;;2.15;1.95;;;;;;;;;;10499892;28;20036;-59
2023/06/11 23:24:28;;;;;;;4.90;1.80;;;;;;;;;;10499313;28;20432;-59
2023/06/11 23:29:29;;;;;;;4.65;2.08;;;;;;;;;;10498786;28;20025;-59
2023/06/11 23:34:30;;;;;;;3.28;1.92;;;;;;;;;;10499399;28;20119;-59
2023/06/11 23:39:31;;;;;;;2.50;2.15;;;;;;;;;;10485829;28;20029;-59
2023/06/11 23:44:31;;;;;;;2.58;2.00;;;;;;;;;;10500026;28;20028;-59
2023/06/11 23:49:32;;;;;;;3.92;2.25;;;;;;;;;;10499519;28;20024;-58
2023/06/11 23:54:32;;;;;;;4.47;2.00;;;;;;;;;;10498285;28;20021;-58
2023/06/11 23:59:33;;;;;;;3.58;1.75;;;;;;;;;;10497772;28;20056;-58
